Terminal Aerodrome Forecast
Issued by NWS

Home | Current Version | Previous Version | Graphics & Text | Print | Product List | Glossary Off
Versions: 1 2 3 4 5 6 7 8 9 10 11 12 13 14

000
FTUS43 KDDC 242320
TAFHYS
TAF
KHYS 242320Z 2500/2524 17013G23KT P6SM SKC
     FM250100 17009KT P6SM SKC
     FM251500 18015G25KT P6SM SKC
     FM251900 17016G26KT P6SM SCT090=

USA.gov is the U.S. government's official web portal to all federal, state and local government web resources and services.